createdAt,value
2022-12-11T00:00:59.171Z,11.63
2022-12-11T00:03:29.385Z,10.73
2022-12-11T00:05:57.593Z,11.43
2022-12-11T00:08:25.460Z,11.47
2022-12-11T00:10:53.429Z,12.33
2022-12-11T00:13:21.200Z,12.43
2022-12-11T00:15:49.908Z,12.87
2022-12-11T00:18:17.965Z,11.60
2022-12-11T00:20:48.498Z,11.60
2022-12-11T00:23:16.353Z,11.73
2022-12-11T00:25:45.327Z,11.60
2022-12-11T00:28:15.396Z,11.70
2022-12-11T00:30:45.480Z,12.93
2022-12-11T00:33:14.755Z,12.10
2022-12-11T00:35:44.270Z,11.77
2022-12-11T00:38:17.313Z,12.77
2022-12-11T00:40:45.842Z,11.23
2022-12-11T00:43:13.890Z,11.80
2022-12-11T00:45:44.469Z,11.40
2022-12-11T00:48:14.283Z,13.10
2022-12-11T00:50:43.467Z,12.57
2022-12-11T00:53:11.592Z,11.60
2022-12-11T00:55:42.647Z,12.37
2022-12-11T00:58:12.718Z,12.17
2022-12-11T01:00:42.491Z,11.77
2022-12-11T01:03:11.079Z,11.57
2022-12-11T01:05:38.963Z,11.70
2022-12-11T01:08:08.314Z,12.07
2022-12-11T01:10:36.571Z,12.23
2022-12-11T01:13:09.160Z,12.60
2022-12-11T01:15:42.195Z,12.13
2022-12-11T01:18:10.570Z,11.87
2022-12-11T01:20:38.887Z,11.13
2022-12-11T01:23:08.252Z,12.40
2022-12-11T01:25:38.175Z,12.57
2022-12-11T01:28:08.034Z,12.30
2022-12-11T01:30:36.812Z,12.90
2022-12-11T01:33:05.625Z,12.13
2022-12-11T01:35:33.587Z,12.23
2022-12-11T01:38:01.577Z,11.73
2022-12-11T01:40:30.126Z,11.73
2022-12-11T01:42:58.365Z,13.13
2022-12-11T01:45:32.868Z,13.50
2022-12-11T01:48:09.427Z,13.57
2022-12-11T01:50:42.053Z,12.07
2022-12-11T01:53:13.679Z,11.87
2022-12-11T01:55:42.911Z,12.80
2022-12-11T01:58:12.221Z,13.03
2022-12-11T02:00:42.495Z,13.23
2022-12-11T02:03:10.616Z,14.13
2022-12-11T02:05:38.949Z,14.33
2022-12-11T02:08:08.477Z,15.03
2022-12-11T02:10:55.844Z,14.73
2022-12-11T02:13:31.846Z,17.60
2022-12-11T02:16:08.025Z,13.07
2022-12-11T02:18:40.841Z,15.30
2022-12-11T02:21:14.810Z,15.47
2022-12-11T02:23:57.486Z,15.83
2022-12-11T02:26:48.677Z,15.60
2022-12-11T02:29:22.711Z,17.03
2022-12-11T02:31:58.914Z,14.10
2022-12-11T02:34:34.177Z,14.30
2022-12-11T02:37:07.011Z,16.00
2022-12-11T02:39:38.041Z,16.67
2022-12-11T02:42:07.816Z,17.37
2022-12-11T02:44:39.585Z,22.27
2022-12-11T02:47:13.070Z,17.40
2022-12-11T02:49:43.609Z,16.80
2022-12-11T02:52:15.640Z,16.73
2022-12-11T02:54:45.855Z,17.20
2022-12-11T02:57:17.755Z,18.43
2022-12-11T02:59:48.245Z,17.70
2022-12-11T03:02:18.857Z,17.87
2022-12-11T03:04:47.715Z,18.97
2022-12-11T03:07:19.130Z,20.77
2022-12-11T03:09:49.149Z,19.17
2022-12-11T03:12:20.977Z,17.20
2022-12-11T03:14:51.145Z,18.00
2022-12-11T03:17:22.777Z,19.47
2022-12-11T03:19:57.104Z,20.20
2022-12-11T03:22:30.106Z,23.57
2022-12-11T03:25:04.303Z,19.60
2022-12-11T03:27:36.738Z,20.20
2022-12-11T03:30:10.869Z,28.43
2022-12-11T03:32:45.539Z,31.33
2022-12-11T03:35:19.458Z,29.30
2022-12-11T03:37:49.317Z,26.87
2022-12-11T03:40:20.634Z,30.13
2022-12-11T03:42:52.033Z,26.27
2022-12-11T03:45:24.533Z,27.77
2022-12-11T03:47:54.798Z,27.67
2022-12-11T03:50:26.457Z,30.67
2022-12-11T03:52:55.531Z,25.40
2022-12-11T03:55:24.892Z,26.00
2022-12-11T03:57:52.892Z,27.77
2022-12-11T04:00:23.565Z,27.03
2022-12-11T04:03:09.684Z,25.73
2022-12-11T04:05:41.388Z,26.87
2022-12-11T04:08:09.134Z,28.83
2022-12-11T04:10:40.198Z,25.47
2022-12-11T04:13:08.722Z,25.50
2022-12-11T04:15:37.914Z,25.23
2022-12-11T04:18:23.648Z,28.73
2022-12-11T04:21:11.828Z,24.63
2022-12-11T04:23:57.072Z,22.37
2022-12-11T04:26:24.865Z,25.93
2022-12-11T04:28:52.848Z,26.70
2022-12-11T04:31:23.588Z,26.20
2022-12-11T04:33:51.869Z,25.07
2022-12-11T04:36:19.774Z,26.13
2022-12-11T04:38:47.650Z,28.83
2022-12-11T04:41:16.880Z,29.33
2022-12-11T04:43:45.517Z,25.93
2022-12-11T04:46:16.417Z,28.80
2022-12-11T04:48:46.645Z,28.63
2022-12-11T04:51:15.388Z,34.87
2022-12-11T04:53:44.995Z,34.33
2022-12-11T04:56:15.221Z,32.33
2022-12-11T04:58:43.993Z,31.93
2022-12-11T05:01:13.924Z,28.80
2022-12-11T05:03:43.627Z,32.13
2022-12-11T05:06:13.655Z,31.93
2022-12-11T05:08:43.969Z,29.63
2022-12-11T05:11:14.105Z,33.63
2022-12-11T05:13:43.069Z,33.03
2022-12-11T05:16:13.323Z,36.93
2022-12-11T05:18:41.471Z,31.67
2022-12-11T05:21:12.260Z,36.47
2022-12-11T05:23:42.491Z,42.63
2022-12-11T05:26:13.907Z,39.50
2022-12-11T05:28:42.083Z,34.87
2022-12-11T05:31:13.833Z,35.30
2022-12-11T05:33:41.917Z,32.97
2022-12-11T05:36:10.271Z,28.63
2022-12-11T05:38:37.994Z,34.33
2022-12-11T05:41:08.273Z,31.30
2022-12-11T05:43:38.214Z,28.80
2022-12-11T05:46:08.180Z,26.10
2022-12-11T05:48:38.174Z,28.60
2022-12-11T05:51:07.424Z,28.83
2022-12-11T05:53:36.224Z,28.33
2022-12-11T05:56:05.196Z,26.43
2022-12-11T05:58:37.309Z,22.80
2022-12-11T06:01:09.196Z,22.03
2022-12-11T06:03:37.093Z,20.47
2022-12-11T06:06:05.517Z,22.67
2022-12-11T06:08:35.413Z,20.40
2022-12-11T06:11:05.317Z,20.20
2022-12-11T06:13:36.919Z,22.13
2022-12-11T06:16:07.199Z,22.07
2022-12-11T06:18:37.448Z,21.43
2022-12-11T06:21:13.034Z,21.97
2022-12-11T06:23:41.405Z,20.13
2022-12-11T06:26:09.818Z,22.30
2022-12-11T06:28:39.890Z,22.20
2022-12-11T06:31:09.076Z,19.97
2022-12-11T06:33:37.440Z,22.60
2022-12-11T06:36:07.172Z,20.60
2022-12-11T06:38:36.540Z,22.13
2022-12-11T06:41:05.921Z,21.00
2022-12-11T06:43:34.670Z,19.63
2022-12-11T06:46:06.466Z,18.80
2022-12-11T06:48:34.591Z,19.83
2022-12-11T06:51:07.770Z,18.10
2022-12-11T06:53:36.348Z,20.47
2022-12-11T06:56:05.793Z,20.67
2022-12-11T06:58:35.593Z,19.13
2022-12-11T07:01:05.835Z,22.07
2022-12-11T07:03:33.814Z,19.57
2022-12-11T07:06:02.690Z,18.27
2022-12-11T07:08:32.157Z,18.93
2022-12-11T07:11:04.893Z,19.03
2022-12-11T07:13:33.700Z,21.97
2022-12-11T07:16:03.731Z,22.00
2022-12-11T07:18:33.768Z,20.93
2022-12-11T07:21:01.760Z,21.43
2022-12-11T07:23:30.157Z,27.53
2022-12-11T07:25:58.997Z,27.37
2022-12-11T07:28:27.246Z,26.70
2022-12-11T07:30:55.191Z,22.07
2022-12-11T07:33:23.038Z,22.87
2022-12-11T07:35:52.309Z,23.43
2022-12-11T07:38:20.001Z,23.03
2022-12-11T07:40:47.756Z,25.37
2022-12-11T07:43:15.629Z,27.37
2022-12-11T07:45:43.533Z,34.20
2022-12-11T07:48:12.928Z,31.57
2022-12-11T07:50:41.005Z,29.50
2022-12-11T07:53:11.030Z,25.13
2022-12-11T07:55:39.034Z,25.30
2022-12-11T07:58:06.830Z,26.40
2022-12-11T08:00:34.951Z,22.70
2022-12-11T08:03:02.874Z,20.40
2022-12-11T08:05:30.850Z,23.50
2022-12-11T08:07:59.066Z,20.80
2022-12-11T08:10:28.529Z,19.43
2022-12-11T08:12:56.574Z,17.93
2022-12-11T08:15:25.290Z,20.07
2022-12-11T08:17:53.208Z,22.37
2022-12-11T08:20:21.062Z,19.33
2022-12-11T08:22:48.773Z,17.93
2022-12-11T08:25:16.612Z,21.87
2022-12-11T08:27:46.098Z,20.93
2022-12-11T08:30:14.741Z,18.23
2022-12-11T08:32:43.072Z,26.17
2022-12-11T08:35:11.715Z,23.03
2022-12-11T08:37:40.789Z,20.03
2022-12-11T08:40:10.929Z,19.77
2022-12-11T08:42:39.020Z,17.40
2022-12-11T08:45:10.765Z,16.47
2022-12-11T08:47:39.023Z,15.57
2022-12-11T08:50:08.054Z,16.37
2022-12-11T08:52:36.563Z,18.17
2022-12-11T08:55:04.853Z,14.93
2022-12-11T08:57:32.808Z,14.00
2022-12-11T09:00:00.861Z,14.93
2022-12-11T09:02:30.230Z,14.80
2022-12-11T09:04:57.972Z,17.50
2022-12-11T09:07:26.554Z,19.30
2022-12-11T09:09:55.937Z,17.97
2022-12-11T09:12:24.433Z,15.70
2022-12-11T09:14:52.295Z,14.87
2022-12-11T09:17:20.490Z,14.83
2022-12-11T09:19:50.074Z,14.40
2022-12-11T09:22:18.299Z,17.87
2022-12-11T09:24:46.402Z,14.33
2022-12-11T09:27:15.290Z,13.87
2022-12-11T09:29:43.687Z,13.47
2022-12-11T09:32:11.699Z,13.07
2022-12-11T09:34:39.473Z,10.33
2022-12-11T09:37:08.909Z,11.20
2022-12-11T09:39:37.694Z,10.07
2022-12-11T09:42:12.971Z,10.80
2022-12-11T09:44:43.438Z,16.63
2022-12-11T09:47:23.415Z,12.73
2022-12-11T09:49:55.238Z,11.33
2022-12-11T09:52:33.739Z,12.60
2022-12-11T09:55:05.781Z,13.17
2022-12-11T09:57:43.472Z,12.83
2022-12-11T10:00:21.134Z,11.97
2022-12-11T10:03:07.988Z,10.37
2022-12-11T10:05:40.719Z,12.13
2022-12-11T10:08:18.135Z,11.70
2022-12-11T10:10:52.810Z,9.07
2022-12-11T10:13:29.255Z,10.83
2022-12-11T10:16:01.467Z,10.73
2022-12-11T10:18:31.535Z,9.77
2022-12-11T10:21:03.517Z,10.97
2022-12-11T10:23:37.202Z,11.23
2022-12-11T10:26:09.263Z,12.03
2022-12-11T10:28:37.431Z,11.83
2022-12-11T10:31:14.971Z,10.83
2022-12-11T10:33:55.495Z,12.10
2022-12-11T10:36:28.579Z,12.23
2022-12-11T10:38:58.508Z,11.33
2022-12-11T10:41:38.306Z,10.43
2022-12-11T10:44:18.582Z,15.37
2022-12-11T10:46:47.155Z,14.73
2022-12-11T10:49:26.523Z,13.37
2022-12-11T10:51:57.031Z,10.27
2022-12-11T10:54:38.256Z,11.53
2022-12-11T10:57:08.180Z,11.03
2022-12-11T10:59:40.335Z,10.50
2022-12-11T11:02:20.715Z,11.10
2022-12-11T11:04:48.766Z,11.70
2022-12-11T11:07:22.237Z,13.07
2022-12-11T11:09:54.394Z,12.77
2022-12-11T11:12:26.416Z,12.20
2022-12-11T11:15:02.365Z,12.23
2022-12-11T11:17:35.093Z,12.87
2022-12-11T11:20:14.424Z,15.20
2022-12-11T11:22:45.989Z,14.73
2022-12-11T11:25:21.123Z,14.70
2022-12-11T11:27:55.649Z,14.97
2022-12-11T11:30:25.832Z,14.90
2022-12-11T11:32:57.029Z,14.43
2022-12-11T11:35:27.386Z,15.23
2022-12-11T11:38:01.261Z,15.10
2022-12-11T11:40:33.039Z,15.80
2022-12-11T11:43:10.159Z,15.47
2022-12-11T11:45:45.309Z,16.33
2022-12-11T11:48:26.209Z,14.17
2022-12-11T11:50:54.655Z,14.93
2022-12-11T11:53:28.751Z,14.07
2022-12-11T11:56:07.728Z,15.23
2022-12-11T11:58:43.682Z,14.80
2022-12-11T12:01:17.493Z,15.87
2022-12-11T12:03:46.599Z,14.23
2022-12-11T12:06:22.934Z,15.90
2022-12-11T12:09:00.860Z,14.90
2022-12-11T12:11:40.293Z,15.87
2022-12-11T12:14:43.705Z,16.50
2022-12-11T12:17:12.790Z,15.23
2022-12-11T12:19:55.938Z,15.07
2022-12-11T12:22:37.221Z,15.87
2022-12-11T12:25:19.066Z,16.10
2022-12-11T12:27:58.139Z,13.47
2022-12-11T12:30:26.129Z,14.93
2022-12-11T12:33:09.386Z,13.53
2022-12-11T12:35:41.190Z,13.73
2022-12-11T12:38:17.493Z,14.20
2022-12-11T12:40:57.713Z,13.13
2022-12-11T12:43:46.292Z,12.70
2022-12-11T12:46:24.866Z,13.33
2022-12-11T12:48:55.206Z,13.97
2022-12-11T12:51:23.847Z,14.57
2022-12-11T12:53:56.678Z,12.83
2022-12-11T12:56:26.454Z,11.23
2022-12-11T12:58:55.799Z,13.43
2022-12-11T13:01:25.554Z,12.77
2022-12-11T13:03:57.470Z,14.17
2022-12-11T13:06:37.567Z,13.17
2022-12-11T13:09:16.038Z,12.13
2022-12-11T13:11:44.865Z,12.83
2022-12-11T13:14:31.633Z,11.63
2022-12-11T13:17:11.075Z,14.50
2022-12-11T13:19:42.512Z,12.80
2022-12-11T13:22:24.762Z,13.77
2022-12-11T13:25:01.792Z,13.20
2022-12-11T13:27:40.103Z,12.23
2022-12-11T13:30:23.516Z,13.00
2022-12-11T13:33:02.107Z,13.33
2022-12-11T13:35:30.811Z,12.73
2022-12-11T13:38:06.897Z,14.03
2022-12-11T13:40:40.179Z,12.87
2022-12-11T13:43:16.667Z,12.17
2022-12-11T13:45:51.511Z,11.57
2022-12-11T13:48:24.101Z,14.97
2022-12-11T13:50:53.624Z,12.17
2022-12-11T13:53:22.537Z,11.63
2022-12-11T13:55:58.679Z,12.63
2022-12-11T13:58:27.367Z,11.63
2022-12-11T14:01:06.068Z,12.07
2022-12-11T14:03:35.177Z,13.10
2022-12-11T14:06:04.287Z,12.73
2022-12-11T14:08:36.803Z,13.70
2022-12-11T14:11:05.907Z,13.67
2022-12-11T14:13:37.090Z,13.47
2022-12-11T14:16:08.303Z,11.93
2022-12-11T14:18:38.445Z,12.40
2022-12-11T14:21:07.916Z,12.47
2022-12-11T14:23:37.393Z,17.00
2022-12-11T14:26:17.730Z,15.40
2022-12-11T14:28:45.725Z,15.97
2022-12-11T14:31:19.489Z,13.60
2022-12-11T14:33:54.748Z,14.73
2022-12-11T14:36:24.042Z,12.47
2022-12-11T14:38:56.526Z,12.27
2022-12-11T14:41:28.763Z,13.07
2022-12-11T14:44:00.380Z,11.37
2022-12-11T14:46:39.029Z,11.70
2022-12-11T14:49:17.811Z,12.63
2022-12-11T14:51:46.458Z,14.07
2022-12-11T14:54:29.590Z,15.13
2022-12-11T14:56:58.005Z,15.00
2022-12-11T14:59:31.847Z,14.60
2022-12-11T15:02:05.576Z,14.30
2022-12-11T15:04:35.096Z,17.23
2022-12-11T15:07:03.000Z,17.57
2022-12-11T15:09:38.236Z,18.47
2022-12-11T15:12:12.525Z,20.53
2022-12-11T15:14:46.684Z,17.53
2022-12-11T15:17:16.668Z,19.77
2022-12-11T15:19:51.211Z,24.27
2022-12-11T15:22:21.066Z,33.57
2022-12-11T15:24:52.130Z,29.13
2022-12-11T15:27:27.109Z,23.60
2022-12-11T15:29:55.212Z,24.80
2022-12-11T15:32:26.305Z,17.03
2022-12-11T15:34:56.179Z,19.60
2022-12-11T15:37:27.012Z,16.17
2022-12-11T15:39:56.259Z,17.30
2022-12-11T15:42:31.573Z,17.17
2022-12-11T15:45:00.877Z,16.67
2022-12-11T15:47:31.692Z,15.60
2022-12-11T15:50:02.086Z,14.97
2022-12-11T15:52:30.016Z,14.97
2022-12-11T15:54:57.883Z,15.23
2022-12-11T15:57:26.944Z,14.47
2022-12-11T15:59:56.079Z,14.80
2022-12-11T16:02:24.679Z,15.00
2022-12-11T16:04:54.323Z,15.27
2022-12-11T16:07:24.765Z,15.63
2022-12-11T16:09:53.746Z,14.43
2022-12-11T16:12:21.724Z,15.27
2022-12-11T16:14:49.617Z,16.50
2022-12-11T16:17:17.546Z,14.70
2022-12-11T16:19:46.085Z,14.80
2022-12-11T16:22:16.713Z,14.17
2022-12-11T16:24:44.731Z,14.37
2022-12-11T16:27:16.319Z,12.77
2022-12-11T16:29:48.019Z,14.80
2022-12-11T16:32:16.330Z,14.73
2022-12-11T16:34:44.197Z,16.03
2022-12-11T16:37:12.109Z,14.87
2022-12-11T16:39:42.870Z,15.60
2022-12-11T16:42:10.586Z,15.13
2022-12-11T16:44:43.720Z,15.10
2022-12-11T16:47:12.179Z,15.93
2022-12-11T16:49:40.646Z,15.50
2022-12-11T16:52:08.881Z,16.60
2022-12-11T16:54:37.138Z,16.87
2022-12-11T16:57:06.806Z,17.93
2022-12-11T16:59:37.462Z,17.23
2022-12-11T17:02:06.294Z,18.47
2022-12-11T17:04:34.278Z,17.03
2022-12-11T17:07:02.259Z,15.23
2022-12-11T17:09:30.051Z,16.20
2022-12-11T17:11:58.007Z,15.07
2022-12-11T17:14:27.425Z,16.73
2022-12-11T17:16:55.341Z,18.63
2022-12-11T17:19:23.690Z,17.53
2022-12-11T17:21:52.009Z,15.80
2022-12-11T17:24:21.329Z,15.33
2022-12-11T17:26:49.427Z,14.73
2022-12-11T17:29:17.533Z,15.97
2022-12-11T17:31:48.768Z,15.87
2022-12-11T17:34:17.207Z,15.43
2022-12-11T17:36:46.545Z,17.60
2022-12-11T17:39:14.597Z,16.63
2022-12-11T17:41:43.145Z,16.97
2022-12-11T17:44:11.339Z,17.67
2022-12-11T17:46:40.192Z,17.83
2022-12-11T17:49:09.684Z,17.37
2022-12-11T17:51:37.385Z,17.83
2022-12-11T17:54:06.935Z,19.67
2022-12-11T17:56:36.391Z,17.60
2022-12-11T17:59:04.878Z,16.90
2022-12-11T18:01:33.191Z,17.63
2022-12-11T18:04:01.947Z,18.50
2022-12-11T18:06:32.022Z,22.10
2022-12-11T18:08:59.744Z,18.90
2022-12-11T18:11:27.974Z,17.33
2022-12-11T18:13:56.265Z,16.40
2022-12-11T18:16:26.876Z,15.43
2022-12-11T18:18:56.571Z,15.87
2022-12-11T18:21:26.899Z,18.57
2022-12-11T18:23:57.102Z,15.43
2022-12-11T18:26:25.804Z,15.80
2022-12-11T18:28:55.331Z,15.00
2022-12-11T18:31:23.788Z,15.13
2022-12-11T18:33:52.242Z,16.60
2022-12-11T18:36:21.497Z,17.93
2022-12-11T18:38:50.082Z,21.53
2022-12-11T18:41:20.629Z,24.57
2022-12-11T18:43:49.318Z,24.27
2022-12-11T18:46:20.860Z,20.10
2022-12-11T18:48:51.874Z,19.63
2022-12-11T18:51:25.216Z,19.70
2022-12-11T18:53:54.855Z,16.93
2022-12-11T18:56:25.892Z,17.33
2022-12-11T18:58:55.044Z,18.57
2022-12-11T19:01:26.246Z,16.90
2022-12-11T19:04:00.449Z,16.40
2022-12-11T19:06:32.339Z,16.30
2022-12-11T19:09:01.753Z,18.63
2022-12-11T19:11:35.987Z,17.13
2022-12-11T19:14:06.136Z,16.63
2022-12-11T19:16:38.155Z,18.20
2022-12-11T19:19:10.850Z,17.07
2022-12-11T19:21:39.751Z,15.90
2022-12-11T19:24:10.314Z,18.13
2022-12-11T19:26:41.312Z,20.27
2022-12-11T19:29:11.314Z,31.30
2022-12-11T19:31:40.081Z,21.23
2022-12-11T19:34:08.663Z,19.03
2022-12-11T19:36:38.347Z,19.07
2022-12-11T19:39:13.354Z,18.40
2022-12-11T19:41:44.475Z,16.97
2022-12-11T19:44:13.212Z,17.60
2022-12-11T19:46:41.783Z,17.07
2022-12-11T19:49:13.533Z,15.97
2022-12-11T19:51:44.602Z,16.33
2022-12-11T19:54:15.035Z,16.67
2022-12-11T19:56:45.731Z,17.13
2022-12-11T19:59:15.717Z,17.77
2022-12-11T20:01:44.680Z,15.60
2022-12-11T20:04:16.383Z,14.53
2022-12-11T20:06:46.849Z,15.23
2022-12-11T20:09:16.052Z,15.60
2022-12-11T20:11:47.436Z,14.30
2022-12-11T20:14:21.161Z,15.97
2022-12-11T20:19:38.441Z,14.43
2022-12-11T20:22:06.987Z,16.80
2022-12-11T20:24:34.743Z,13.47
2022-12-11T20:27:04.687Z,14.70
2022-12-11T20:29:32.592Z,14.57
2022-12-11T20:32:01.280Z,15.73
2022-12-11T20:34:29.852Z,19.97
2022-12-11T20:36:57.897Z,15.87
2022-12-11T20:39:26.942Z,15.10
2022-12-11T20:41:54.923Z,15.53
2022-12-11T20:44:25.867Z,15.97
2022-12-11T20:46:53.712Z,15.73
2022-12-11T20:49:21.906Z,14.97
2022-12-11T20:51:50.789Z,15.83
2022-12-11T20:54:18.703Z,17.17
2022-12-11T20:56:46.661Z,15.90
2022-12-11T20:59:15.247Z,14.40
2022-12-11T21:01:45.222Z,15.07
2022-12-11T21:04:13.072Z,15.53
2022-12-11T21:06:42.168Z,15.93
2022-12-11T21:09:12.994Z,16.20
2022-12-11T21:11:41.297Z,15.83
2022-12-11T21:14:09.599Z,16.80
2022-12-11T21:16:39.479Z,15.87
2022-12-11T21:19:13.670Z,16.10
2022-12-11T21:21:45.438Z,16.30
2022-12-11T21:24:17.262Z,14.53
2022-12-11T21:26:45.109Z,14.93
2022-12-11T21:29:13.174Z,15.37
2022-12-11T21:31:41.019Z,15.57
2022-12-11T21:34:10.605Z,15.43
2022-12-11T21:36:38.627Z,14.77
2022-12-11T21:39:06.898Z,16.90
2022-12-11T21:41:34.942Z,15.93
2022-12-11T21:45:25.514Z,15.87
2022-12-11T21:46:50.928Z,16.07
2022-12-11T21:49:20.802Z,16.73
2022-12-11T21:51:48.860Z,16.30
2022-12-11T21:54:18.089Z,15.93
2022-12-11T21:56:47.734Z,16.97
2022-12-11T21:59:18.095Z,16.37
2022-12-11T22:01:47.192Z,19.47
2022-12-11T22:04:17.781Z,24.07
2022-12-11T22:06:48.168Z,21.13
2022-12-11T22:09:17.749Z,18.33
2022-12-11T22:11:47.085Z,17.43
2022-12-11T22:14:16.191Z,15.93
2022-12-11T22:16:44.401Z,15.33
2022-12-11T22:19:12.345Z,17.90
2022-12-11T22:21:40.856Z,16.03
2022-12-11T22:24:10.530Z,15.70
2022-12-11T22:26:38.717Z,15.23
2022-12-11T22:29:06.614Z,18.83
2022-12-11T22:31:34.983Z,14.87
2022-12-11T22:34:04.107Z,14.67
2022-12-11T22:36:32.094Z,15.53
2022-12-11T22:39:01.833Z,16.73
2022-12-11T22:41:32.923Z,18.53
2022-12-11T22:44:02.523Z,17.00
2022-12-11T22:46:31.777Z,16.97
2022-12-11T22:49:00.294Z,16.10
2022-12-11T22:51:29.131Z,14.00
2022-12-11T22:53:57.260Z,14.27
2022-12-11T22:56:26.094Z,13.83
2022-12-11T22:58:56.303Z,13.20
2022-12-11T23:01:25.634Z,14.47
2022-12-11T23:03:54.038Z,13.73
2022-12-11T23:06:24.861Z,14.87
2022-12-11T23:08:55.097Z,14.37
2022-12-11T23:11:25.899Z,14.60
2022-12-11T23:13:57.123Z,13.87
2022-12-11T23:16:27.104Z,14.97
2022-12-11T23:18:56.115Z,14.17
2022-12-11T23:21:25.043Z,14.43
2022-12-11T23:23:53.893Z,14.93
2022-12-11T23:26:23.006Z,14.50
2022-12-11T23:28:52.748Z,14.37
2022-12-11T23:31:22.457Z,14.27
2022-12-11T23:33:50.271Z,13.70
2022-12-11T23:36:19.089Z,15.20
2022-12-11T23:38:54.084Z,13.83
2022-12-11T23:41:23.560Z,14.67
2022-12-11T23:43:51.444Z,14.53
2022-12-11T23:46:22.626Z,14.83
2022-12-11T23:48:51.071Z,13.40
2022-12-11T23:51:20.706Z,12.50
2022-12-11T23:53:48.670Z,13.33
2022-12-11T23:56:19.586Z,14.33
2022-12-11T23:58:48.061Z,13.50
